sensor_id;sensor_type;location;lat;lon;timestamp;pressure;altitude;pressure_sealevel;temperature;humidity
43818;BME280;29868;47.360;18.984;2023-11-19T00:01:07;61469.69;;;0.80;100.00
43818;BME280;29868;47.360;18.984;2023-11-19T00:03:33;61456.09;;;0.69;100.00
43818;BME280;29868;47.360;18.984;2023-11-19T00:05:59;61454.53;;;0.63;100.00
43818;BME280;29868;47.360;18.984;2023-11-19T00:08:24;61444.28;;;0.56;100.00
43818;BME280;29868;47.360;18.984;2023-11-19T00:10:50;61454.00;;;0.63;100.00
43818;BME280;29868;47.360;18.984;2023-11-19T00:13:16;61462.03;;;0.68;100.00
43818;BME280;29868;47.360;18.984;2023-11-19T00:15:41;61446.25;;;0.56;100.00
43818;BME280;29868;47.360;18.984;2023-11-19T00:18:07;61440.97;;;0.53;100.00
43818;BME280;29868;47.360;18.984;2023-11-19T00:20:32;61433.25;;;0.46;100.00
43818;BME280;29868;47.360;18.984;2023-11-19T00:22:58;61435.19;;;0.45;100.00
43818;BME280;29868;47.360;18.984;2023-11-19T00:25:23;61433.25;;;0.46;100.00
43818;BME280;29868;47.360;18.984;2023-11-19T00:27:49;61438.84;;;0.46;100.00
43818;BME280;29868;47.360;18.984;2023-11-19T00:30:15;61434.09;;;0.44;100.00
43818;BME280;29868;47.360;18.984;2023-11-19T00:32:42;61434.66;;;0.45;100.00
43818;BME280;29868;47.360;18.984;2023-11-19T00:35:08;61438.75;;;0.51;100.00
43818;BME280;29868;47.360;18.984;2023-11-19T00:37:35;61443.81;;;0.51;100.00
43818;BME280;29868;47.360;18.984;2023-11-19T00:40:00;61437.41;;;0.47;100.00
43818;BME280;29868;47.360;18.984;2023-11-19T00:42:26;61429.38;;;0.42;100.00
43818;BME280;29868;47.360;18.984;2023-11-19T00:44:52;61449.81;;;0.61;100.00
43818;BME280;29868;47.360;18.984;2023-11-19T00:47:17;61438.44;;;0.53;100.00
43818;BME280;29868;47.360;18.984;2023-11-19T00:49:46;61438.75;;;0.51;100.00
43818;BME280;29868;47.360;18.984;2023-11-19T00:52:14;61428.81;;;0.42;100.00
43818;BME280;29868;47.360;18.984;2023-11-19T00:54:39;61428.81;;;0.42;100.00
43818;BME280;29868;47.360;18.984;2023-11-19T00:57:04;61425.50;;;0.39;100.00
43818;BME280;29868;47.360;18.984;2023-11-19T00:59:31;61422.75;;;0.36;100.00
43818;BME280;29868;47.360;18.984;2023-11-19T01:01:56;61427.16;;;0.40;100.00
43818;BME280;29868;47.360;18.984;2023-11-19T01:04:22;61429.69;;;0.40;100.00
43818;BME280;29868;47.360;18.984;2023-11-19T01:06:49;61427.16;;;0.40;100.00
43818;BME280;29868;47.360;18.984;2023-11-19T01:09:15;61420.22;;;0.36;100.00
43818;BME280;29868;47.360;18.984;2023-11-19T01:11:40;61414.47;;;0.29;100.00
43818;BME280;29868;47.360;18.984;2023-11-19T01:14:06;61410.34;;;0.22;100.00
43818;BME280;29868;47.360;18.984;2023-11-19T01:16:31;61439.41;;;0.47;100.00
43818;BME280;29868;47.360;18.984;2023-11-19T01:18:56;61446.50;;;0.58;100.00
43818;BME280;29868;47.360;18.984;2023-11-19T01:21:22;61441.75;;;0.56;100.00
43818;BME280;29868;47.360;18.984;2023-11-19T01:23:47;61435.44;;;0.48;100.00
43818;BME280;29868;47.360;18.984;2023-11-19T01:26:13;61425.59;;;0.34;100.00
43818;BME280;29868;47.360;18.984;2023-11-19T01:28:39;61416.69;;;0.31;100.00
43818;BME280;29868;47.360;18.984;2023-11-19T01:31:08;61412.56;;;0.24;100.00
43818;BME280;29868;47.360;18.984;2023-11-19T01:33:35;61406.41;;;0.23;100.00
43818;BME280;29868;47.360;18.984;2023-11-19T01:36:01;61403.41;;;0.18;100.00
43818;BME280;29868;47.360;18.984;2023-11-19T01:38:26;61397.91;;;0.13;100.00
43818;BME280;29868;47.360;18.984;2023-11-19T01:40:56;61399.53;;;0.15;100.00
43818;BME280;29868;47.360;18.984;2023-11-19T01:45:58;61399.00;;;0.14;100.00
43818;BME280;29868;47.360;18.984;2023-11-19T01:48:24;61399.78;;;0.17;100.00
43818;BME280;29868;47.360;18.984;2023-11-19T01:50:49;61403.41;;;0.18;100.00
43818;BME280;29868;47.360;18.984;2023-11-19T01:53:17;61414.78;;;0.27;100.00
43818;BME280;29868;47.360;18.984;2023-11-19T01:55:43;61413.38;;;0.28;100.00
43818;BME280;29868;47.360;18.984;2023-11-19T01:58:09;61414.16;;;0.31;100.00
43818;BME280;29868;47.360;18.984;2023-11-19T02:00:34;61413.25;;;0.32;100.00
43818;BME280;29868;47.360;18.984;2023-11-19T02:03:00;61407.81;;;0.22;100.00
43818;BME280;29868;47.360;18.984;2023-11-19T02:05:26;61400.34;;;0.18;100.00
43818;BME280;29868;47.360;18.984;2023-11-19T02:07:52;61399.22;;;0.17;100.00
43818;BME280;29868;47.360;18.984;2023-11-19T02:10:17;61390.63;;;0.11;100.00
43818;BME280;29868;47.360;18.984;2023-11-19T02:12:44;61394.81;;;0.13;100.00
43818;BME280;29868;47.360;18.984;2023-11-19T02:15:11;61393.47;;;0.09;100.00
43818;BME280;29868;47.360;18.984;2023-11-19T02:17:37;61387.09;;;0.06;100.00
43818;BME280;29868;47.360;18.984;2023-11-19T02:20:05;61378.81;;;-0.02;100.00
43818;BME280;29868;47.360;18.984;2023-11-19T02:22:36;61373.84;;;-0.07;100.00
43818;BME280;29868;47.360;18.984;2023-11-19T02:25:06;61371.72;;;-0.13;100.00
43818;BME280;29868;47.360;18.984;2023-11-19T02:27:54;61369.44;;;-0.11;100.00
43818;BME280;29868;47.360;18.984;2023-11-19T02:30:21;61355.97;;;-0.26;100.00
43818;BME280;29868;47.360;18.984;2023-11-19T02:33:00;61362.25;;;-0.17;100.00
43818;BME280;29868;47.360;18.984;2023-11-19T02:35:30;61362.25;;;-0.17;100.00
43818;BME280;29868;47.360;18.984;2023-11-19T02:37:57;61366.22;;;-0.18;100.00
43818;BME280;29868;47.360;18.984;2023-11-19T02:40:24;61361.47;;;-0.20;100.00
43818;BME280;29868;47.360;18.984;2023-11-19T02:42:51;61370.63;;;-0.14;100.00
43818;BME280;29868;47.360;18.984;2023-11-19T02:45:16;61362.25;;;-0.17;100.00
43818;BME280;29868;47.360;18.984;2023-11-19T02:47:42;61357.94;;;-0.26;100.00
43818;BME280;29868;47.360;18.984;2023-11-19T02:50:11;61350.44;;;-0.31;100.00
43818;BME280;29868;47.360;18.984;2023-11-19T02:52:41;61344.38;;;-0.36;100.00
43818;BME280;29868;47.360;18.984;2023-11-19T02:55:07;61346.03;;;-0.35;100.00
43818;BME280;29868;47.360;18.984;2023-11-19T02:57:35;61343.28;;;-0.37;100.00
43818;BME280;29868;47.360;18.984;2023-11-19T03:00:00;61348.78;;;-0.32;100.00
43818;BME280;29868;47.360;18.984;2023-11-19T03:02:26;61344.59;;;-0.34;100.00
43818;BME280;29868;47.360;18.984;2023-11-19T03:04:59;61349.88;;;-0.31;100.00
43818;BME280;29868;47.360;18.984;2023-11-19T03:07:25;61354.28;;;-0.27;100.00
43818;BME280;29868;47.360;18.984;2023-11-19T03:09:50;61354.84;;;-0.27;100.00
43818;BME280;29868;47.360;18.984;2023-11-19T03:12:15;61355.97;;;-0.26;100.00
43818;BME280;29868;47.360;18.984;2023-11-19T03:14:41;61352.66;;;-0.29;100.00
43818;BME280;29868;47.360;18.984;2023-11-19T03:17:07;61361.22;;;-0.23;100.00
43818;BME280;29868;47.360;18.984;2023-11-19T03:19:34;61356.81;;;-0.27;100.00
43818;BME280;29868;47.360;18.984;2023-11-19T03:22:01;61356.28;;;-0.28;100.00
43818;BME280;29868;47.360;18.984;2023-11-19T03:24:27;61351.53;;;-0.30;100.00
43818;BME280;29868;47.360;18.984;2023-11-19T03:26:52;61352.09;;;-0.29;100.00
43818;BME280;29868;47.360;18.984;2023-11-19T03:29:17;61352.09;;;-0.29;100.00
43818;BME280;29868;47.360;18.984;2023-11-19T03:31:43;61348.22;;;-0.33;100.00
43818;BME280;29868;47.360;18.984;2023-11-19T03:34:09;61341.84;;;-0.36;100.00
43818;BME280;29868;47.360;18.984;2023-11-19T03:36:35;61345.25;;;-0.38;100.00
43818;BME280;29868;47.360;18.984;2023-11-19T03:39:00;61348.53;;;-0.35;100.00
43818;BME280;29868;47.360;18.984;2023-11-19T03:41:26;61349.34;;;-0.32;100.00
43818;BME280;29868;47.360;18.984;2023-11-19T03:43:51;61351.53;;;-0.30;100.00
43818;BME280;29868;47.360;18.984;2023-11-19T03:46:20;61347.34;;;-0.31;100.00
43818;BME280;29868;47.360;18.984;2023-11-19T03:48:49;61373.63;;;-0.09;100.00
43818;BME280;29868;47.360;18.984;2023-11-19T03:51:15;61372.50;;;-0.10;100.00
43818;BME280;29868;47.360;18.984;2023-11-19T03:53:47;61376.13;;;-0.09;100.00
43818;BME280;29868;47.360;18.984;2023-11-19T03:56:12;61379.06;;;0.01;100.00
43818;BME280;29868;47.360;18.984;2023-11-19T03:58:38;61373.63;;;-0.09;100.00
43818;BME280;29868;47.360;18.984;2023-11-19T04:01:11;61373.31;;;-0.07;100.00
43818;BME280;29868;47.360;18.984;2023-11-19T04:03:38;61378.03;;;-0.05;100.00
43818;BME280;29868;47.360;18.984;2023-11-19T04:06:04;61383.31;;;-0.03;100.00
43818;BME280;29868;47.360;18.984;2023-11-19T04:08:29;61371.63;;;-0.09;100.00
43818;BME280;29868;47.360;18.984;2023-11-19T04:10:55;61376.59;;;-0.04;100.00
43818;BME280;29868;47.360;18.984;2023-11-19T04:13:20;61378.91;;;-0.07;100.00
43818;BME280;29868;47.360;18.984;2023-11-19T04:15:46;61374.16;;;-0.09;100.00
43818;BME280;29868;47.360;18.984;2023-11-19T04:18:11;61367.56;;;-0.15;100.00
43818;BME280;29868;47.360;18.984;2023-11-19T04:20:37;61358.16;;;-0.23;100.00
43818;BME280;29868;47.360;18.984;2023-11-19T04:23:02;61352.31;;;-0.27;100.00
43818;BME280;29868;47.360;18.984;2023-11-19T04:25:28;61351.84;;;-0.32;100.00
43818;BME280;29868;47.360;18.984;2023-11-19T04:27:54;61341.28;;;-0.37;100.00
43818;BME280;29868;47.360;18.984;2023-11-19T04:30:19;61338.28;;;-0.42;100.00
43818;BME280;29868;47.360;18.984;2023-11-19T04:32:44;61326.72;;;-0.53;100.00
43818;BME280;29868;47.360;18.984;2023-11-19T04:35:10;61321.75;;;-0.57;100.00
43818;BME280;29868;47.360;18.984;2023-11-19T04:37:36;61312.91;;;-0.65;100.00
43818;BME280;29868;47.360;18.984;2023-11-19T04:40:03;61309.94;;;-0.70;100.00
43818;BME280;29868;47.360;18.984;2023-11-19T04:42:28;61303.56;;;-0.74;100.00
43818;BME280;29868;47.360;18.984;2023-11-19T04:44:55;61304.88;;;-0.70;100.00
43818;BME280;29868;47.360;18.984;2023-11-19T04:47:20;61304.88;;;-0.70;100.00
43818;BME280;29868;47.360;18.984;2023-11-19T04:49:45;61307.41;;;-0.70;100.00
43818;BME280;29868;47.360;18.984;2023-11-19T04:52:11;61313.16;;;-0.63;100.00
43818;BME280;29868;47.360;18.984;2023-11-19T04:54:42;61324.50;;;-0.55;100.00
43818;BME280;29868;47.360;18.984;2023-11-19T04:57:10;61326.72;;;-0.53;100.00
43818;BME280;29868;47.360;18.984;2023-11-19T04:59:36;61335.31;;;-0.47;100.00
43818;BME280;29868;47.360;18.984;2023-11-19T05:02:02;61345.81;;;-0.37;100.00
43818;BME280;29868;47.360;18.984;2023-11-19T05:04:29;61338.06;;;-0.44;100.00
43818;BME280;29868;47.360;18.984;2023-11-19T05:06:54;61344.03;;;-0.34;100.00
43818;BME280;29868;47.360;18.984;2023-11-19T05:09:20;61355.63;;;-0.23;100.00
43818;BME280;29868;47.360;18.984;2023-11-19T05:11:45;61368.88;;;-0.11;100.00
43818;BME280;29868;47.360;18.984;2023-11-19T05:14:11;61378.03;;;-0.05;100.00
43818;BME280;29868;47.360;18.984;2023-11-19T05:16:39;61376.59;;;-0.04;100.00
43818;BME280;29868;47.360;18.984;2023-11-19T05:19:05;61380.56;;;-0.05;100.00
43818;BME280;29868;47.360;18.984;2023-11-19T05:21:30;61380.69;;;0.02;100.00
43818;BME280;29868;47.360;18.984;2023-11-19T05:23:55;61386.78;;;0.08;100.00
43818;BME280;29868;47.360;18.984;2023-11-19T05:26:23;61411.16;;;0.26;100.00
43818;BME280;29868;47.360;18.984;2023-11-19T05:28:49;61424.97;;;0.38;100.00
43818;BME280;29868;47.360;18.984;2023-11-19T05:31:16;61423.06;;;0.34;100.00
43818;BME280;29868;47.360;18.984;2023-11-19T05:33:42;61411.16;;;0.26;100.00
43818;BME280;29868;47.360;18.984;2023-11-19T05:36:07;61418.41;;;0.28;100.00
43818;BME280;29868;47.360;18.984;2023-11-19T05:38:36;61413.03;;;0.30;100.00
43818;BME280;29868;47.360;18.984;2023-11-19T05:41:02;61420.06;;;0.29;100.00
43818;BME280;29868;47.360;18.984;2023-11-19T05:43:27;61415.56;;;0.30;100.00
43818;BME280;29868;47.360;18.984;2023-11-19T05:45:52;61413.38;;;0.28;100.00
43818;BME280;29868;47.360;18.984;2023-11-19T05:48:18;61412.25;;;0.27;100.00
43818;BME280;29868;47.360;18.984;2023-11-19T05:50:43;61415.09;;;0.24;100.00
43818;BME280;29868;47.360;18.984;2023-11-19T05:53:09;61410.59;;;0.25;100.00
43818;BME280;29868;47.360;18.984;2023-11-19T05:55:38;61407.81;;;0.22;100.00
43818;BME280;29868;47.360;18.984;2023-11-19T05:58:11;61409.25;;;0.21;100.00
43818;BME280;29868;47.360;18.984;2023-11-19T06:00:38;61401.44;;;0.19;100.00
43818;BME280;29868;47.360;18.984;2023-11-19T06:03:04;61400.13;;;0.15;100.00
43818;BME280;29868;47.360;18.984;2023-11-19T06:05:29;61403.41;;;0.18;100.00
43818;BME280;29868;47.360;18.984;2023-11-19T06:07:55;61405.06;;;0.20;100.00
43818;BME280;29868;47.360;18.984;2023-11-19T06:10:20;61407.28;;;0.22;100.00
43818;BME280;29868;47.360;18.984;2023-11-19T06:12:46;61405.63;;;0.20;100.00
43818;BME280;29868;47.360;18.984;2023-11-19T06:15:12;61404.19;;;0.21;100.00
43818;BME280;29868;47.360;18.984;2023-11-19T06:17:38;61405.28;;;0.22;100.00
43818;BME280;29868;47.360;18.984;2023-11-19T06:20:04;61412.81;;;0.27;100.00
43818;BME280;29868;47.360;18.984;2023-11-19T06:22:30;61427.72;;;0.41;100.00
43818;BME280;29868;47.360;18.984;2023-11-19T06:24:56;61443.16;;;0.55;100.00
43818;BME280;29868;47.360;18.984;2023-11-19T06:27:21;61451.69;;;0.65;100.00
43818;BME280;29868;47.360;18.984;2023-11-19T06:29:47;61453.69;;;0.65;100.00
43818;BME280;29868;47.360;18.984;2023-11-19T06:32:13;61467.47;;;0.78;100.00
43818;BME280;29868;47.360;18.984;2023-11-19T06:34:38;61478.28;;;0.85;100.00
43818;BME280;29868;47.360;18.984;2023-11-19T06:37:04;61488.47;;;0.97;100.00
43818;BME280;29868;47.360;18.984;2023-11-19T06:39:29;61506.78;;;1.09;100.00
43818;BME280;29868;47.360;18.984;2023-11-19T06:41:55;61521.63;;;1.28;100.00
43818;BME280;29868;47.360;18.984;2023-11-19T06:44:20;61542.41;;;1.44;100.00
43818;BME280;29868;47.360;18.984;2023-11-19T06:46:46;61554.78;;;1.58;100.00
43818;BME280;29868;47.360;18.984;2023-11-19T06:49:11;61571.72;;;1.72;100.00
43818;BME280;29868;47.360;18.984;2023-11-19T06:51:41;61583.53;;;1.85;100.00
43818;BME280;29868;47.360;18.984;2023-11-19T06:54:07;61595.72;;;1.96;100.00
43818;BME280;29868;47.360;18.984;2023-11-19T06:56:32;61615.63;;;2.14;100.00
43818;BME280;29868;47.360;18.984;2023-11-19T06:58:58;61636.09;;;2.33;100.00
43818;BME280;29868;47.360;18.984;2023-11-19T07:01:23;61653.81;;;2.50;100.00
43818;BME280;29868;47.360;18.984;2023-11-19T07:03:49;61660.22;;;2.53;100.00
43818;BME280;29868;47.360;18.984;2023-11-19T07:06:14;61683.47;;;2.75;100.00
43818;BME280;29868;47.360;18.984;2023-11-19T07:08:43;61694.22;;;2.87;100.00
43818;BME280;29868;47.360;18.984;2023-11-19T07:11:12;61701.72;;;2.91;100.00
43818;BME280;29868;47.360;18.984;2023-11-19T07:13:40;61706.94;;;2.99;100.00
43818;BME280;29868;47.360;18.984;2023-11-19T07:16:07;61690.13;;;2.81;100.00
43818;BME280;29868;47.360;18.984;2023-11-19T07:18:35;61728.88;;;3.16;100.00
43818;BME280;29868;47.360;18.984;2023-11-19T07:21:00;61721.91;;;3.12;100.00
43818;BME280;29868;47.360;18.984;2023-11-19T07:23:26;61722.47;;;3.13;100.00
43818;BME280;29868;47.360;18.984;2023-11-19T07:25:51;61729.97;;;3.17;100.00
43818;BME280;29868;47.360;18.984;2023-11-19T07:28:18;61724.75;;;3.10;100.00
43818;BME280;29868;47.360;18.984;2023-11-19T07:30:44;61723.00;;;3.13;100.00
43818;BME280;29868;47.360;18.984;2023-11-19T07:33:09;61715.25;;;3.06;100.00
43818;BME280;29868;47.360;18.984;2023-11-19T07:35:35;61724.91;;;3.17;100.00
43818;BME280;29868;47.360;18.984;2023-11-19T07:38:00;61734.41;;;3.22;100.00
43818;BME280;29868;47.360;18.984;2023-11-19T07:40:25;61738.53;;;3.28;100.00
43818;BME280;29868;47.360;18.984;2023-11-19T07:42:51;61736.88;;;3.26;100.00
43818;BME280;29868;47.360;18.984;2023-11-19T07:45:17;61737.41;;;3.27;100.00
43818;BME280;29868;47.360;18.984;2023-11-19T07:47:43;61739.97;;;3.27;100.00
43818;BME280;29868;47.360;18.984;2023-11-19T07:50:11;61702.84;;;2.92;100.00
43818;BME280;29868;47.360;18.984;2023-11-19T07:52:39;61683.16;;;2.77;100.00
43818;BME280;29868;47.360;18.984;2023-11-19T07:55:05;61712.81;;;3.02;100.00
43818;BME280;29868;47.360;18.984;2023-11-19T07:57:30;61734.97;;;3.22;100.00
43818;BME280;29868;47.360;18.984;2023-11-19T07:59:57;61739.63;;;3.29;100.00
43818;BME280;29868;47.360;18.984;2023-11-19T08:02:22;61753.50;;;3.41;100.00
43818;BME280;29868;47.360;18.984;2023-11-19T08:04:49;61774.31;;;3.58;100.00
43818;BME280;29868;47.360;18.984;2023-11-19T08:07:17;61793.47;;;3.74;100.00
43818;BME280;29868;47.360;18.984;2023-11-19T08:09:42;61805.56;;;3.89;100.00
43818;BME280;29868;47.360;18.984;2023-11-19T08:12:08;61792.25;;;3.77;100.00
43818;BME280;29868;47.360;18.984;2023-11-19T08:14:34;61822.19;;;4.05;100.00
43818;BME280;29868;47.360;18.984;2023-11-19T08:17:00;61829.41;;;4.11;100.00
43818;BME280;29868;47.360;18.984;2023-11-19T08:19:26;61827.50;;;4.07;100.00
43818;BME280;29868;47.360;18.984;2023-11-19T08:21:51;61838.06;;;4.17;100.00
43818;BME280;29868;47.360;18.984;2023-11-19T08:24:17;61849.13;;;4.27;100.00
43818;BME280;29868;47.360;18.984;2023-11-19T08:26:43;61841.59;;;4.23;100.00
43818;BME280;29868;47.360;18.984;2023-11-19T08:29:08;61856.03;;;4.36;100.00
43818;BME280;29868;47.360;18.984;2023-11-19T08:31:34;61851.03;;;4.31;100.00
43818;BME280;29868;47.360;18.984;2023-11-19T08:34:00;61826.97;;;4.07;100.00
43818;BME280;29868;47.360;18.984;2023-11-19T08:36:26;61839.41;;;4.21;100.00
43818;BME280;29868;47.360;18.984;2023-11-19T08:38:53;61866.00;;;4.45;100.00
43818;BME280;29868;47.360;18.984;2023-11-19T08:41:18;61886.63;;;4.59;100.00
43818;BME280;29868;47.360;18.984;2023-11-19T08:43:44;61891.19;;;4.71;100.00
43818;BME280;29868;47.360;18.984;2023-11-19T08:46:11;61910.16;;;4.83;100.00
43818;BME280;29868;47.360;18.984;2023-11-19T08:48:36;61941.25;;;5.12;100.00
43818;BME280;29868;47.360;18.984;2023-11-19T08:51:01;61941.44;;;5.15;100.00
43818;BME280;29868;47.360;18.984;2023-11-19T08:53:27;61942.13;;;5.10;100.00
43818;BME280;29868;47.360;18.984;2023-11-19T08:55:52;61951.78;;;5.22;100.00
43818;BME280;29868;47.360;18.984;2023-11-19T08:58:18;61950.34;;;5.23;100.00
43818;BME280;29868;47.360;18.984;2023-11-19T09:00:43;61955.13;;;5.25;100.00
43818;BME280;29868;47.360;18.984;2023-11-19T09:03:08;61943.25;;;5.11;100.00
43818;BME280;29868;47.360;18.984;2023-11-19T09:05:34;61948.69;;;5.21;100.00
43818;BME280;29868;47.360;18.984;2023-11-19T09:08:00;61964.22;;;5.35;100.00
43818;BME280;29868;47.360;18.984;2023-11-19T09:10:25;61975.97;;;5.42;100.00
43818;BME280;29868;47.360;18.984;2023-11-19T09:12:52;61982.09;;;5.47;100.00
43818;BME280;29868;47.360;18.984;2023-11-19T09:15:18;61976.75;;;5.45;100.00
43818;BME280;29868;47.360;18.984;2023-11-19T09:17:43;61993.97;;;5.60;100.00
43818;BME280;29868;47.360;18.984;2023-11-19T09:20:09;61986.53;;;5.51;100.00
43818;BME280;29868;47.360;18.984;2023-11-19T09:22:37;61993.09;;;5.62;100.00
43818;BME280;29868;47.360;18.984;2023-11-19T09:25:03;61993.22;;;5.57;100.00
43818;BME280;29868;47.360;18.984;2023-11-19T09:27:30;61969.56;;;5.38;100.00
43818;BME280;29868;47.360;18.984;2023-11-19T09:29:55;61982.88;;;5.50;100.00
43818;BME280;29868;47.360;18.984;2023-11-19T09:32:23;61968.97;;;5.37;100.00
43818;BME280;29868;47.360;18.984;2023-11-19T09:34:48;61950.69;;;5.21;100.00
43818;BME280;29868;47.360;18.984;2023-11-19T09:37:14;61962.53;;;5.34;100.00
43818;BME280;29868;47.360;18.984;2023-11-19T09:39:39;61976.75;;;5.45;100.00
43818;BME280;29868;47.360;18.984;2023-11-19T09:42:09;61962.34;;;5.31;100.00
43818;BME280;29868;47.360;18.984;2023-11-19T09:44:34;61942.59;;;5.16;100.00
43818;BME280;29868;47.360;18.984;2023-11-19T09:47:00;61967.56;;;5.39;100.00
43818;BME280;29868;47.360;18.984;2023-11-19T09:49:26;61978.22;;;5.44;100.00
43818;BME280;29868;47.360;18.984;2023-11-19T09:51:52;61972.22;;;5.45;100.00
43818;BME280;29868;47.360;18.984;2023-11-19T09:54:18;61997.09;;;5.61;100.00
43818;BME280;29868;47.360;18.984;2023-11-19T09:56:43;62011.75;;;5.77;100.00
43818;BME280;29868;47.360;18.984;2023-11-19T09:59:09;62011.53;;;5.74;100.00
43818;BME280;29868;47.360;18.984;2023-11-19T10:01:37;61998.44;;;5.65;100.00
43818;BME280;29868;47.360;18.984;2023-11-19T10:04:03;61989.53;;;5.56;100.00
43818;BME280;29868;47.360;18.984;2023-11-19T10:06:28;62002.09;;;5.66;100.00
43818;BME280;29868;47.360;18.984;2023-11-19T10:08:54;61993.22;;;5.57;100.00
43818;BME280;29868;47.360;18.984;2023-11-19T10:11:20;61990.66;;;5.57;100.00
43818;BME280;29868;47.360;18.984;2023-11-19T10:13:46;62008.75;;;5.72;100.00
43818;BME280;29868;47.360;18.984;2023-11-19T10:16:13;61994.53;;;5.61;100.00
43818;BME280;29868;47.360;18.984;2023-11-19T10:18:49;62014.31;;;5.77;100.00
43818;BME280;29868;47.360;18.984;2023-11-19T10:21:18;62032.34;;;5.96;100.00
43818;BME280;29868;47.360;18.984;2023-11-19T10:23:57;62047.31;;;6.09;100.00
43818;BME280;29868;47.360;18.984;2023-11-19T10:26:25;62040.97;;;6.01;100.00
43818;BME280;29868;47.360;18.984;2023-11-19T10:28:51;62054.88;;;6.14;100.00
43818;BME280;29868;47.360;18.984;2023-11-19T10:31:19;62054.31;;;6.14;100.00
43818;BME280;29868;47.360;18.984;2023-11-19T10:33:45;62060.44;;;6.19;100.00
43818;BME280;29868;47.360;18.984;2023-11-19T10:36:12;62056.00;;;6.15;100.00
43818;BME280;29868;47.360;18.984;2023-11-19T10:38:38;62031.78;;;5.95;100.00
43818;BME280;29868;47.360;18.984;2023-11-19T10:41:03;62056.78;;;6.18;100.00
43818;BME280;29868;47.360;18.984;2023-11-19T10:43:30;62070.66;;;6.31;100.00
43818;BME280;29868;47.360;18.984;2023-11-19T10:46:09;62078.22;;;6.36;100.00
43818;BME280;29868;47.360;18.984;2023-11-19T10:48:36;62079.91;;;6.37;100.00
43818;BME280;29868;47.360;18.984;2023-11-19T10:51:05;62092.34;;;6.51;100.00
43818;BME280;29868;47.360;18.984;2023-11-19T10:53:35;62108.34;;;6.58;100.00
43818;BME280;29868;47.360;18.984;2023-11-19T10:56:02;62082.88;;;6.42;100.00
43818;BME280;29868;47.360;18.984;2023-11-19T10:58:32;62062.31;;;6.23;100.00
43818;BME280;29868;47.360;18.984;2023-11-19T11:01:01;62074.78;;;6.37;100.00
43818;BME280;29868;47.360;18.984;2023-11-19T11:03:36;62051.88;;;6.21;100.00
43818;BME280;29868;47.360;18.984;2023-11-19T11:06:05;62059.34;;;6.18;100.00
43818;BME280;29868;47.360;18.984;2023-11-19T11:08:31;62056.53;;;6.16;100.00
43818;BME280;29868;47.360;18.984;2023-11-19T11:10:57;62053.09;;;6.17;100.00
43818;BME280;29868;47.360;18.984;2023-11-19T11:13:24;62048.09;;;6.13;100.00
43818;BME280;29868;47.360;18.984;2023-11-19T11:15:51;62053.66;;;6.18;100.00
43818;BME280;29868;47.360;18.984;2023-11-19T11:18:17;62073.78;;;6.31;100.00
43818;BME280;29868;47.360;18.984;2023-11-19T11:20:44;62070.66;;;6.31;100.00
43818;BME280;29868;47.360;18.984;2023-11-19T11:26:18;62083.44;;;6.43;100.00
43818;BME280;29868;47.360;18.984;2023-11-19T11:29:08;62105.13;;;6.63;100.00
43818;BME280;29868;47.360;18.984;2023-11-19T11:37:32;62076.78;;;6.37;100.00
43818;BME280;29868;47.360;18.984;2023-11-19T11:39:58;62085.56;;;6.38;100.00
43818;BME280;29868;47.360;18.984;2023-11-19T11:50:07;62046.75;;;6.09;100.00
43818;BME280;29868;47.360;18.984;2023-11-19T11:52:33;62068.44;;;6.29;100.00
43818;BME280;29868;47.360;18.984;2023-11-19T11:55:04;62091.78;;;6.50;100.00
43818;BME280;29868;47.360;18.984;2023-11-19T11:57:36;62092.88;;;6.51;100.00
43818;BME280;29868;47.360;18.984;2023-11-19T12:00:02;62082.88;;;6.42;100.00
43818;BME280;29868;47.360;18.984;2023-11-19T12:02:30;62101.34;;;6.54;100.00
43818;BME280;29868;47.360;18.984;2023-11-19T12:04:56;62117.91;;;6.74;100.00
43818;BME280;29868;47.360;18.984;2023-11-19T12:07:23;62138.16;;;6.95;100.00
43818;BME280;29868;47.360;18.984;2023-11-19T12:09:53;62115.69;;;6.72;100.00
43818;BME280;29868;47.360;18.984;2023-11-19T12:12:30;62128.81;;;6.82;100.00
43818;BME280;29868;47.360;18.984;2023-11-19T12:17:46;62142.72;;;6.95;100.00
43818;BME280;29868;47.360;18.984;2023-11-19T12:20:14;62158.50;;;7.12;100.00
43818;BME280;29868;47.360;18.984;2023-11-19T12:22:42;62160.31;;;7.09;100.00
43818;BME280;29868;47.360;18.984;2023-11-19T12:25:09;62166.63;;;7.17;100.00
43818;BME280;29868;47.360;18.984;2023-11-19T12:27:40;62163.28;;;7.14;100.00
43818;BME280;29868;47.360;18.984;2023-11-19T12:30:06;62166.28;;;7.19;100.00
43818;BME280;29868;47.360;18.984;2023-11-19T12:32:42;62168.84;;;7.19;100.00
43818;BME280;29868;47.360;18.984;2023-11-19T12:35:09;62181.44;;;7.28;100.00
43818;BME280;29868;47.360;18.984;2023-11-19T12:37:41;62141.81;;;6.96;100.00
43818;BME280;29868;47.360;18.984;2023-11-19T12:40:26;62146.50;;;7.03;100.00
43818;BME280;29868;47.360;18.984;2023-11-19T12:42:54;62144.72;;;6.94;100.00
43818;BME280;29868;47.360;18.984;2023-11-19T12:45:21;62132.13;;;6.85;100.00
43818;BME280;29868;47.360;18.984;2023-11-19T12:47:48;62126.03;;;6.79;100.00
43818;BME280;29868;47.360;18.984;2023-11-19T12:50:15;62130.13;;;6.86;100.00
43818;BME280;29868;47.360;18.984;2023-11-19T12:52:43;62139.38;;;6.92;100.00
43818;BME280;29868;47.360;18.984;2023-11-19T12:55:28;62110.47;;;6.65;100.00
43818;BME280;29868;47.360;18.984;2023-11-19T12:57:54;62100.66;;;6.58;100.00
43818;BME280;29868;47.360;18.984;2023-11-19T13:00:24;62091.47;;;6.52;100.00
43818;BME280;29868;47.360;18.984;2023-11-19T13:02:56;62098.22;;;6.54;100.00
43818;BME280;29868;47.360;18.984;2023-11-19T13:05:32;62089.34;;;6.46;100.00
43818;BME280;29868;47.360;18.984;2023-11-19T13:08:05;62079.91;;;6.37;100.00